sensor_id;sensor_type;location;lat;lon;timestamp;pressure;altitude;pressure_sealevel;temperature;humidity
24558;BME280;12726;49.148;8.582;2023-10-08T00:02:33;101172.09;;;15.68;69.44
24558;BME280;12726;49.148;8.582;2023-10-08T00:05:20;101183.03;;;15.61;70.04
24558;BME280;12726;49.148;8.582;2023-10-08T00:08:06;101180.09;;;15.63;69.35
24558;BME280;12726;49.148;8.582;2023-10-08T00:10:53;101187.97;;;15.46;69.91
24558;BME280;12726;49.148;8.582;2023-10-08T00:13:41;101185.88;;;15.48;69.67
24558;BME280;12726;49.148;8.582;2023-10-08T00:16:27;101178.91;;;15.52;69.40
24558;BME280;12726;49.148;8.582;2023-10-08T00:19:13;101178.09;;;15.52;68.82
24558;BME280;12726;49.148;8.582;2023-10-08T00:22:00;101174.59;;;15.70;67.88
24558;BME280;12726;49.148;8.582;2023-10-08T00:24:50;101173.97;;;15.68;67.70
24558;BME280;12726;49.148;8.582;2023-10-08T00:27:41;101172.38;;;15.60;68.13
24558;BME280;12726;49.148;8.582;2023-10-08T00:30:27;101172.38;;;15.60;67.77
24558;BME280;12726;49.148;8.582;2023-10-08T00:33:15;101178.34;;;15.69;67.13
24558;BME280;12726;49.148;8.582;2023-10-08T00:36:00;101177.44;;;15.56;67.88
24558;BME280;12726;49.148;8.582;2023-10-08T00:39:04;101166.81;;;15.55;67.54
24558;BME280;12726;49.148;8.582;2023-10-08T00:41:54;101165.16;;;15.54;67.71
24558;BME280;12726;49.148;8.582;2023-10-08T00:44:42;101171.53;;;15.41;68.15
24558;BME280;12726;49.148;8.582;2023-10-08T00:47:35;101166.13;;;15.41;68.40
24558;BME280;12726;49.148;8.582;2023-10-08T00:50:27;101173.41;;;15.41;68.31
24558;BME280;12726;49.148;8.582;2023-10-08T00:53:26;101171.66;;;15.28;68.89
24558;BME280;12726;49.148;8.582;2023-10-08T00:56:14;101175.97;;;15.36;68.28
24558;BME280;12726;49.148;8.582;2023-10-08T00:59:03;101167.06;;;15.28;68.81
24558;BME280;12726;49.148;8.582;2023-10-08T01:01:51;101173.31;;;15.29;68.70
24558;BME280;12726;49.148;8.582;2023-10-08T01:04:43;101165.66;;;15.26;68.47
24558;BME280;12726;49.148;8.582;2023-10-08T01:07:29;101169.78;;;15.28;68.19
24558;BME280;12726;49.148;8.582;2023-10-08T01:10:14;101177.41;;;15.20;68.48
24558;BME280;12726;49.148;8.582;2023-10-08T01:13:05;101174.72;;;15.13;68.68
24558;BME280;12726;49.148;8.582;2023-10-08T01:15:56;101176.03;;;15.29;67.56
24558;BME280;12726;49.148;8.582;2023-10-08T01:18:42;101181.09;;;15.25;67.08
24558;BME280;12726;49.148;8.582;2023-10-08T01:21:34;101175.44;;;15.45;65.77
24558;BME280;12726;49.148;8.582;2023-10-08T01:24:21;101166.25;;;15.46;65.33
24558;BME280;12726;49.148;8.582;2023-10-08T01:27:08;101178.31;;;15.50;64.84
24558;BME280;12726;49.148;8.582;2023-10-08T01:29:55;101168.75;;;15.48;64.59
24558;BME280;12726;49.148;8.582;2023-10-08T01:32:52;101171.91;;;15.45;64.45
24558;BME280;12726;49.148;8.582;2023-10-08T01:35:38;101168.81;;;15.41;64.50
24558;BME280;12726;49.148;8.582;2023-10-08T01:38:24;101176.66;;;15.31;64.57
24558;BME280;12726;49.148;8.582;2023-10-08T01:41:13;101185.69;;;15.25;64.51
24558;BME280;12726;49.148;8.582;2023-10-08T01:44:03;101182.69;;;15.33;63.94
24558;BME280;12726;49.148;8.582;2023-10-08T01:46:52;101174.44;;;15.21;64.41
24558;BME280;12726;49.148;8.582;2023-10-08T01:49:37;101175.56;;;15.14;64.60
24558;BME280;12726;49.148;8.582;2023-10-08T01:52:23;101173.91;;;15.13;64.65
24558;BME280;12726;49.148;8.582;2023-10-08T01:55:09;101174.56;;;15.08;64.85
24558;BME280;12726;49.148;8.582;2023-10-08T01:58:02;101184.81;;;15.06;64.67
24558;BME280;12726;49.148;8.582;2023-10-08T02:00:48;101189.19;;;15.07;64.45
24558;BME280;12726;49.148;8.582;2023-10-08T02:03:36;101187.38;;;15.01;64.47
24558;BME280;12726;49.148;8.582;2023-10-08T02:06:21;101184.88;;;15.00;64.72
24558;BME280;12726;49.148;8.582;2023-10-08T02:09:07;101184.63;;;14.83;65.15
24558;BME280;12726;49.148;8.582;2023-10-08T02:11:54;101199.22;;;14.82;65.40
24558;BME280;12726;49.148;8.582;2023-10-08T02:14:44;101202.69;;;14.64;66.42
24558;BME280;12726;49.148;8.582;2023-10-08T02:17:29;101198.34;;;14.57;66.63
24558;BME280;12726;49.148;8.582;2023-10-08T02:20:16;101188.59;;;14.56;66.71
24558;BME280;12726;49.148;8.582;2023-10-08T02:23:03;101193.34;;;14.60;66.95
24558;BME280;12726;49.148;8.582;2023-10-08T02:25:48;101193.13;;;14.62;66.89
24558;BME280;12726;49.148;8.582;2023-10-08T02:28:34;101188.41;;;14.50;67.18
24558;BME280;12726;49.148;8.582;2023-10-08T02:31:20;101185.69;;;14.50;67.33
24558;BME280;12726;49.148;8.582;2023-10-08T02:34:07;101192.66;;;14.40;67.70
24558;BME280;12726;49.148;8.582;2023-10-08T02:36:52;101175.47;;;14.53;67.01
24558;BME280;12726;49.148;8.582;2023-10-08T02:39:39;101183.81;;;14.51;66.92
24558;BME280;12726;49.148;8.582;2023-10-08T02:42:24;101176.91;;;14.55;66.52
24558;BME280;12726;49.148;8.582;2023-10-08T02:45:11;101178.06;;;14.66;65.97
24558;BME280;12726;49.148;8.582;2023-10-08T02:47:58;101173.88;;;14.70;65.54
24558;BME280;12726;49.148;8.582;2023-10-08T02:50:44;101171.19;;;14.70;65.68
24558;BME280;12726;49.148;8.582;2023-10-08T02:53:30;101163.47;;;14.67;65.38
24558;BME280;12726;49.148;8.582;2023-10-08T02:56:15;101174.41;;;14.54;65.94
24558;BME280;12726;49.148;8.582;2023-10-08T02:59:02;101172.31;;;14.56;66.09
24558;BME280;12726;49.148;8.582;2023-10-08T03:01:49;101176.25;;;14.60;65.72
24558;BME280;12726;49.148;8.582;2023-10-08T03:04:37;101172.28;;;14.62;65.80
24558;BME280;12726;49.148;8.582;2023-10-08T03:07:23;101178.13;;;14.59;65.68
24558;BME280;12726;49.148;8.582;2023-10-08T03:10:16;101177.28;;;14.59;65.56
24558;BME280;12726;49.148;8.582;2023-10-08T03:13:03;101181.31;;;14.49;65.82
24558;BME280;12726;49.148;8.582;2023-10-08T03:15:49;101194.06;;;14.49;65.95
24558;BME280;12726;49.148;8.582;2023-10-08T03:18:51;101191.22;;;14.31;66.80
24558;BME280;12726;49.148;8.582;2023-10-08T03:21:40;101188.34;;;14.26;67.16
24558;BME280;12726;49.148;8.582;2023-10-08T03:24:32;101187.84;;;14.35;67.13
24558;BME280;12726;49.148;8.582;2023-10-08T03:27:23;101175.78;;;14.31;67.07
24558;BME280;12726;49.148;8.582;2023-10-08T03:30:11;101190.00;;;14.27;67.23
24558;BME280;12726;49.148;8.582;2023-10-08T03:32:58;101195.78;;;14.30;67.06
24558;BME280;12726;49.148;8.582;2023-10-08T03:35:45;101193.34;;;14.22;67.29
24558;BME280;12726;49.148;8.582;2023-10-08T03:38:32;101185.22;;;14.22;67.28
24558;BME280;12726;49.148;8.582;2023-10-08T03:41:28;101181.91;;;14.20;66.97
24558;BME280;12726;49.148;8.582;2023-10-08T03:44:14;101173.59;;;14.15;67.27
24558;BME280;12726;49.148;8.582;2023-10-08T03:47:00;101181.97;;;14.07;67.57
24558;BME280;12726;49.148;8.582;2023-10-08T03:49:53;101182.22;;;13.99;68.03
24558;BME280;12726;49.148;8.582;2023-10-08T03:52:39;101174.13;;;13.99;67.86
24558;BME280;12726;49.148;8.582;2023-10-08T03:55:28;101163.91;;;13.94;68.00
24558;BME280;12726;49.148;8.582;2023-10-08T03:58:18;101164.13;;;13.93;67.94
24558;BME280;12726;49.148;8.582;2023-10-08T04:01:11;101152.28;;;13.87;68.32
24558;BME280;12726;49.148;8.582;2023-10-08T04:04:03;101141.47;;;13.87;67.88
24558;BME280;12726;49.148;8.582;2023-10-08T04:06:48;101139.16;;;13.91;67.42
24558;BME280;12726;49.148;8.582;2023-10-08T04:09:35;101137.09;;;13.86;67.38
24558;BME280;12726;49.148;8.582;2023-10-08T04:12:25;101142.53;;;13.80;67.31
24558;BME280;12726;49.148;8.582;2023-10-08T04:15:11;101148.16;;;13.85;66.59
24558;BME280;12726;49.148;8.582;2023-10-08T04:18:00;101153.38;;;13.80;66.83
24558;BME280;12726;49.148;8.582;2023-10-08T04:20:47;101145.63;;;13.90;66.04
24558;BME280;12726;49.148;8.582;2023-10-08T04:23:44;101159.41;;;13.82;66.32
24558;BME280;12726;49.148;8.582;2023-10-08T04:26:30;101150.41;;;13.88;66.15
24558;BME280;12726;49.148;8.582;2023-10-08T04:29:17;101161.06;;;13.83;66.04
24558;BME280;12726;49.148;8.582;2023-10-08T04:32:06;101160.66;;;13.79;65.89
24558;BME280;12726;49.148;8.582;2023-10-08T04:34:56;101169.63;;;13.73;65.57
24558;BME280;12726;49.148;8.582;2023-10-08T04:37:42;101169.63;;;13.73;65.51
24558;BME280;12726;49.148;8.582;2023-10-08T04:40:27;101171.09;;;13.76;65.35
24558;BME280;12726;49.148;8.582;2023-10-08T04:43:18;101175.50;;;13.70;65.53
24558;BME280;12726;49.148;8.582;2023-10-08T04:46:10;101176.31;;;13.70;65.27
24558;BME280;12726;49.148;8.582;2023-10-08T04:49:05;101179.03;;;13.70;65.05
24558;BME280;12726;49.148;8.582;2023-10-08T04:51:54;101179.44;;;13.67;65.14
24558;BME280;12726;49.148;8.582;2023-10-08T04:54:42;101180.31;;;13.61;65.59
24558;BME280;12726;49.148;8.582;2023-10-08T04:57:34;101167.66;;;13.49;65.90
24558;BME280;12726;49.148;8.582;2023-10-08T05:00:19;101171.78;;;13.51;65.87
24558;BME280;12726;49.148;8.582;2023-10-08T05:03:26;101167.84;;;13.54;66.00
24558;BME280;12726;49.148;8.582;2023-10-08T05:06:22;101175.53;;;13.50;65.59
24558;BME280;12726;49.148;8.582;2023-10-08T05:09:23;101179.31;;;13.49;65.57
24558;BME280;12726;49.148;8.582;2023-10-08T05:12:22;101168.06;;;13.46;65.59
24558;BME280;12726;49.148;8.582;2023-10-08T05:15:18;101169.56;;;13.42;65.81
24558;BME280;12726;49.148;8.582;2023-10-08T05:18:16;101168.47;;;13.56;65.04
24558;BME280;12726;49.148;8.582;2023-10-08T05:21:23;101169.47;;;13.61;64.69
24558;BME280;12726;49.148;8.582;2023-10-08T05:24:19;101166.81;;;13.55;65.08
24558;BME280;12726;49.148;8.582;2023-10-08T05:27:11;101168.09;;;13.39;65.58
24558;BME280;12726;49.148;8.582;2023-10-08T05:30:23;101163.94;;;13.30;65.89
24558;BME280;12726;49.148;8.582;2023-10-08T05:33:22;101160.19;;;13.31;65.83
24558;BME280;12726;49.148;8.582;2023-10-08T05:36:09;101164.56;;;13.32;65.42
24558;BME280;12726;49.148;8.582;2023-10-08T05:39:03;101166.06;;;13.15;66.15
24558;BME280;12726;49.148;8.582;2023-10-08T05:42:03;101174.38;;;13.20;65.75
24558;BME280;12726;49.148;8.582;2023-10-08T05:44:57;101169.38;;;13.23;65.67
24558;BME280;12726;49.148;8.582;2023-10-08T05:47:58;101177.25;;;13.31;65.10
24558;BME280;12726;49.148;8.582;2023-10-08T05:51:06;101174.56;;;13.31;65.15
24558;BME280;12726;49.148;8.582;2023-10-08T05:53:58;101166.25;;;13.26;65.33
24558;BME280;12726;49.148;8.582;2023-10-08T05:56:44;101173.47;;;13.46;64.34
24558;BME280;12726;49.148;8.582;2023-10-08T05:59:48;101161.44;;;13.42;64.54
24558;BME280;12726;49.148;8.582;2023-10-08T06:02:57;101157.81;;;13.61;63.96
24558;BME280;12726;49.148;8.582;2023-10-08T06:05:53;101160.50;;;13.67;63.82
24558;BME280;12726;49.148;8.582;2023-10-08T06:09:02;101166.97;;;13.66;64.49
24558;BME280;12726;49.148;8.582;2023-10-08T06:12:07;101177.53;;;13.75;64.75
24558;BME280;12726;49.148;8.582;2023-10-08T06:15:04;101182.06;;;13.87;64.34
24558;BME280;12726;49.148;8.582;2023-10-08T06:17:52;101187.66;;;13.99;64.47
24558;BME280;12726;49.148;8.582;2023-10-08T06:20:49;101187.22;;;13.95;64.99
24558;BME280;12726;49.148;8.582;2023-10-08T06:23:40;101190.56;;;13.97;65.52
24558;BME280;12726;49.148;8.582;2023-10-08T06:26:26;101198.75;;;14.22;64.48
24558;BME280;12726;49.148;8.582;2023-10-08T06:29:19;101192.44;;;14.41;63.62
24558;BME280;12726;49.148;8.582;2023-10-08T06:32:10;101197.97;;;14.53;63.96
24558;BME280;12726;49.148;8.582;2023-10-08T06:34:55;101207.09;;;14.59;63.67
24558;BME280;12726;49.148;8.582;2023-10-08T06:37:41;101210.47;;;14.54;64.04
24558;BME280;12726;49.148;8.582;2023-10-08T06:40:26;101211.31;;;14.55;64.36
24558;BME280;12726;49.148;8.582;2023-10-08T06:43:27;101214.22;;;14.53;64.96
24558;BME280;12726;49.148;8.582;2023-10-08T06:46:15;101212.69;;;14.64;64.28
24558;BME280;12726;49.148;8.582;2023-10-08T06:49:03;101208.50;;;14.68;64.42
24558;BME280;12726;49.148;8.582;2023-10-08T06:51:55;101221.13;;;14.80;64.02
24558;BME280;12726;49.148;8.582;2023-10-08T06:54:40;101219.34;;;14.93;63.73
24558;BME280;12726;49.148;8.582;2023-10-08T06:57:25;101223.50;;;15.20;62.68
24558;BME280;12726;49.148;8.582;2023-10-08T07:00:12;101236.75;;;15.28;62.65
24558;BME280;12726;49.148;8.582;2023-10-08T07:03:19;101238.91;;;15.26;63.08
24558;BME280;12726;49.148;8.582;2023-10-08T07:06:05;101237.59;;;15.28;63.20
24558;BME280;12726;49.148;8.582;2023-10-08T07:09:01;101232.56;;;15.32;63.54
24558;BME280;12726;49.148;8.582;2023-10-08T07:11:49;101232.94;;;15.36;63.72
24558;BME280;12726;49.148;8.582;2023-10-08T07:14:38;101221.19;;;15.42;63.33
24558;BME280;12726;49.148;8.582;2023-10-08T07:17:25;101221.56;;;15.45;63.44
24558;BME280;12726;49.148;8.582;2023-10-08T07:20:22;101221.56;;;15.45;63.26
24558;BME280;12726;49.148;8.582;2023-10-08T07:23:08;101221.25;;;15.35;63.54
24558;BME280;12726;49.148;8.582;2023-10-08T07:26:03;101221.16;;;15.23;63.88
24558;BME280;12726;49.148;8.582;2023-10-08T07:28:55;101226.59;;;15.23;64.30
24558;BME280;12726;49.148;8.582;2023-10-08T07:31:41;101243.09;;;15.22;64.67
24558;BME280;12726;49.148;8.582;2023-10-08T07:34:26;101234.66;;;15.30;64.82
24558;BME280;12726;49.148;8.582;2023-10-08T07:37:16;101234.38;;;15.81;63.71
24558;BME280;12726;49.148;8.582;2023-10-08T07:40:02;101228.56;;;16.86;60.36
24558;BME280;12726;49.148;8.582;2023-10-08T07:42:52;101247.28;;;17.87;57.76
24558;BME280;12726;49.148;8.582;2023-10-08T07:45:38;101255.50;;;18.15;55.90
24558;BME280;12726;49.148;8.582;2023-10-08T07:48:23;101253.91;;;18.31;55.54
24558;BME280;12726;49.148;8.582;2023-10-08T07:51:13;101278.00;;;18.51;55.06
24558;BME280;12726;49.148;8.582;2023-10-08T07:54:00;101285.09;;;19.25;53.71
24558;BME280;12726;49.148;8.582;2023-10-08T07:56:46;101285.28;;;19.90;52.18
24558;BME280;12726;49.148;8.582;2023-10-08T07:59:32;101274.88;;;20.53;49.94
24558;BME280;12726;49.148;8.582;2023-10-08T08:05:58;101280.63;;;19.02;53.54
24558;BME280;12726;49.148;8.582;2023-10-08T08:08:44;101300.72;;;19.13;54.53
24558;BME280;12726;49.148;8.582;2023-10-08T08:11:32;101295.03;;;19.31;54.33
24558;BME280;12726;49.148;8.582;2023-10-08T08:14:21;101292.88;;;19.67;53.06
24558;BME280;12726;49.148;8.582;2023-10-08T08:17:08;101298.03;;;19.85;53.57
24558;BME280;12726;49.148;8.582;2023-10-08T08:19:58;101297.63;;;19.76;53.37
24558;BME280;12726;49.148;8.582;2023-10-08T08:22:50;101297.34;;;19.73;53.43
24558;BME280;12726;49.148;8.582;2023-10-08T08:25:39;101295.03;;;19.65;54.38
24558;BME280;12726;49.148;8.582;2023-10-08T08:28:41;101301.25;;;19.60;55.12
24558;BME280;12726;49.148;8.582;2023-10-08T08:31:30;101304.69;;;19.72;54.97
24558;BME280;12726;49.148;8.582;2023-10-08T08:34:15;101301.38;;;19.70;54.41
24558;BME280;12726;49.148;8.582;2023-10-08T08:37:03;101297.34;;;19.56;54.90
24558;BME280;12726;49.148;8.582;2023-10-08T08:39:50;101284.00;;;19.43;54.79
24558;BME280;12726;49.148;8.582;2023-10-08T08:42:35;101278.31;;;19.44;54.95
24558;BME280;12726;49.148;8.582;2023-10-08T08:45:23;101278.16;;;19.51;54.89
24558;BME280;12726;49.148;8.582;2023-10-08T08:48:14;101285.88;;;19.76;55.20
24558;BME280;12726;49.148;8.582;2023-10-08T08:51:03;101280.88;;;19.89;54.52
24558;BME280;12726;49.148;8.582;2023-10-08T08:53:50;101293.84;;;19.77;54.52
24558;BME280;12726;49.148;8.582;2023-10-08T08:56:38;101294.00;;;19.71;53.71
24558;BME280;12726;49.148;8.582;2023-10-08T08:59:25;101306.59;;;19.55;55.22
24558;BME280;12726;49.148;8.582;2023-10-08T09:02:15;101299.25;;;19.55;54.51
24558;BME280;12726;49.148;8.582;2023-10-08T09:05:02;101293.38;;;19.47;55.30
24558;BME280;12726;49.148;8.582;2023-10-08T09:07:58;101302.97;;;19.49;55.27
24558;BME280;12726;49.148;8.582;2023-10-08T09:10:47;101294.63;;;19.39;55.60
24558;BME280;12726;49.148;8.582;2023-10-08T09:13:35;101297.94;;;19.58;55.92
24558;BME280;12726;49.148;8.582;2023-10-08T09:16:21;101306.78;;;19.65;55.02
24558;BME280;12726;49.148;8.582;2023-10-08T09:19:08;101307.06;;;19.85;54.39
24558;BME280;12726;49.148;8.582;2023-10-08T09:22:00;101306.84;;;20.09;54.29
24558;BME280;12726;49.148;8.582;2023-10-08T09:24:48;101311.56;;;20.35;53.87
24558;BME280;12726;49.148;8.582;2023-10-08T09:27:36;101316.84;;;20.42;52.91
24558;BME280;12726;49.148;8.582;2023-10-08T09:30:22;101314.69;;;20.44;53.36
24558;BME280;12726;49.148;8.582;2023-10-08T09:33:10;101315.00;;;20.47;53.54
24558;BME280;12726;49.148;8.582;2023-10-08T09:35:58;101307.13;;;20.51;52.85
24558;BME280;12726;49.148;8.582;2023-10-08T09:38:46;101307.56;;;20.43;53.10
24558;BME280;12726;49.148;8.582;2023-10-08T09:41:36;101306.50;;;20.44;52.93
24558;BME280;12726;49.148;8.582;2023-10-08T09:44:24;101311.63;;;20.40;53.77
24558;BME280;12726;49.148;8.582;2023-10-08T09:47:09;101321.28;;;20.48;53.71
24558;BME280;12726;49.148;8.582;2023-10-08T09:49:57;101325.66;;;20.70;54.08
24558;BME280;12726;49.148;8.582;2023-10-08T09:52:49;101315.19;;;20.89;53.26
24558;BME280;12726;49.148;8.582;2023-10-08T09:55:44;101319.72;;;21.32;51.79
24558;BME280;12726;49.148;8.582;2023-10-08T09:58:30;101318.41;;;21.82;51.36
24558;BME280;12726;49.148;8.582;2023-10-08T10:01:17;101321.72;;;22.31;49.96
24558;BME280;12726;49.148;8.582;2023-10-08T10:04:06;101318.69;;;22.22;50.72
24558;BME280;12726;49.148;8.582;2023-10-08T10:06:51;101316.97;;;22.79;49.70
24558;BME280;12726;49.148;8.582;2023-10-08T10:09:39;101322.78;;;23.28;47.91
24558;BME280;12726;49.148;8.582;2023-10-08T10:12:27;101305.47;;;22.92;49.01
24558;BME280;12726;49.148;8.582;2023-10-08T10:15:15;101300.91;;;22.45;49.97
24558;BME280;12726;49.148;8.582;2023-10-08T10:18:13;101301.06;;;22.13;50.92
24558;BME280;12726;49.148;8.582;2023-10-08T10:21:00;101293.16;;;22.22;50.94
24558;BME280;12726;49.148;8.582;2023-10-08T10:23:48;101290.22;;;22.44;50.29
24558;BME280;12726;49.148;8.582;2023-10-08T10:26:36;101296.13;;;23.13;49.15
24558;BME280;12726;49.148;8.582;2023-10-08T10:29:24;101309.31;;;23.67;47.47
24558;BME280;12726;49.148;8.582;2023-10-08T10:32:13;101302.19;;;24.50;46.49
24558;BME280;12726;49.148;8.582;2023-10-08T10:34:59;101310.56;;;25.18;44.87
24558;BME280;12726;49.148;8.582;2023-10-08T10:37:47;101302.56;;;25.51;42.93
24558;BME280;12726;49.148;8.582;2023-10-08T10:40:36;101299.94;;;25.02;45.28
24558;BME280;12726;49.148;8.582;2023-10-08T10:43:26;101302.31;;;24.74;45.22
24558;BME280;12726;49.148;8.582;2023-10-08T10:46:16;101294.13;;;24.59;46.61
24558;BME280;12726;49.148;8.582;2023-10-08T10:49:15;101279.16;;;24.75;45.57
24558;BME280;12726;49.148;8.582;2023-10-08T10:52:05;101272.56;;;24.76;44.44
24558;BME280;12726;49.148;8.582;2023-10-08T10:54:52;101270.25;;;25.27;44.92
24558;BME280;12726;49.148;8.582;2023-10-08T10:57:44;101268.75;;;26.17;42.29
24558;BME280;12726;49.148;8.582;2023-10-08T11:00:42;101260.47;;;26.59;41.76
24558;BME280;12726;49.148;8.582;2023-10-08T11:03:33;101261.22;;;26.83;39.87
24558;BME280;12726;49.148;8.582;2023-10-08T11:06:19;101253.75;;;26.46;40.03
24558;BME280;12726;49.148;8.582;2023-10-08T11:09:09;101264.09;;;25.93;41.71
24558;BME280;12726;49.148;8.582;2023-10-08T11:11:59;101250.63;;;25.87;42.15
24558;BME280;12726;49.148;8.582;2023-10-08T11:14:47;101252.06;;;25.84;42.93
24558;BME280;12726;49.148;8.582;2023-10-08T11:17:33;101259.22;;;25.85;41.96
24558;BME280;12726;49.148;8.582;2023-10-08T11:20:27;101246.81;;;25.59;42.13
24558;BME280;12726;49.148;8.582;2023-10-08T11:23:31;101256.91;;;25.68;42.16
24558;BME280;12726;49.148;8.582;2023-10-08T11:26:19;101246.97;;;26.15;41.35
24558;BME280;12726;49.148;8.582;2023-10-08T11:29:06;101245.38;;;26.70;39.88
24558;BME280;12726;49.148;8.582;2023-10-08T11:32:02;101246.34;;;27.31;39.43
24558;BME280;12726;49.148;8.582;2023-10-08T11:34:54;101251.75;;;27.82;37.61
24558;BME280;12726;49.148;8.582;2023-10-08T11:37:45;101251.31;;;28.29;36.82
24558;BME280;12726;49.148;8.582;2023-10-08T11:40:32;101249.88;;;28.46;35.74
24558;BME280;12726;49.148;8.582;2023-10-08T11:43:32;101238.66;;;29.09;35.13
24558;BME280;12726;49.148;8.582;2023-10-08T11:46:24;101240.38;;;29.49;34.65
24558;BME280;12726;49.148;8.582;2023-10-08T11:49:16;101238.72;;;29.79;34.41
24558;BME280;12726;49.148;8.582;2023-10-08T11:52:04;101240.28;;;30.03;33.26
24558;BME280;12726;49.148;8.582;2023-10-08T11:54:49;101227.31;;;29.89;32.60
24558;BME280;12726;49.148;8.582;2023-10-08T11:57:37;101228.47;;;29.88;33.18
24558;BME280;12726;49.148;8.582;2023-10-08T12:00:28;101219.63;;;28.94;34.99
24558;BME280;12726;49.148;8.582;2023-10-08T12:03:15;101221.47;;;28.76;35.37
24558;BME280;12726;49.148;8.582;2023-10-08T12:06:02;101219.66;;;28.22;36.34
24558;BME280;12726;49.148;8.582;2023-10-08T12:08:50;101219.22;;;28.28;36.94
24558;BME280;12726;49.148;8.582;2023-10-08T12:11:37;101218.72;;;28.13;37.15
24558;BME280;12726;49.148;8.582;2023-10-08T12:14:23;101211.91;;;27.69;37.58
24558;BME280;12726;49.148;8.582;2023-10-08T12:17:13;101222.97;;;27.23;39.28
24558;BME280;12726;49.148;8.582;2023-10-08T12:20:01;101215.13;;;26.98;38.30
24558;BME280;12726;49.148;8.582;2023-10-08T12:22:56;101220.34;;;26.80;39.55
24558;BME280;12726;49.148;8.582;2023-10-08T12:25:45;101227.56;;;26.63;40.18
24558;BME280;12726;49.148;8.582;2023-10-08T12:28:35;101220.59;;;26.65;39.85
24558;BME280;12726;49.148;8.582;2023-10-08T12:31:21;101224.41;;;26.32;40.71
24558;BME280;12726;49.148;8.582;2023-10-08T12:34:07;101221.34;;;26.33;40.90
24558;BME280;12726;49.148;8.582;2023-10-08T12:36:55;101210.91;;;26.30;41.16
24558;BME280;12726;49.148;8.582;2023-10-08T12:39:40;101214.94;;;26.38;40.59
24558;BME280;12726;49.148;8.582;2023-10-08T12:42:45;101206.72;;;26.51;40.93
24558;BME280;12726;49.148;8.582;2023-10-08T12:45:32;101215.81;;;26.71;40.37
24558;BME280;12726;49.148;8.582;2023-10-08T12:48:19;101212.69;;;26.59;41.12
24558;BME280;12726;49.148;8.582;2023-10-08T12:51:04;101211.38;;;26.56;40.88
24558;BME280;12726;49.148;8.582;2023-10-08T12:53:51;101203.31;;;26.41;41.09
24558;BME280;12726;49.148;8.582;2023-10-08T12:56:42;101203.06;;;26.37;40.20
24558;BME280;12726;49.148;8.582;2023-10-08T12:59:33;101206.63;;;26.19;41.98
24558;BME280;12726;49.148;8.582;2023-10-08T13:02:18;101209.78;;;26.31;41.88
24558;BME280;12726;49.148;8.582;2023-10-08T13:05:04;101207.44;;;26.20;42.81
24558;BME280;12726;49.148;8.582;2023-10-08T13:07:59;101208.97;;;26.31;41.80
24558;BME280;12726;49.148;8.582;2023-10-08T13:10:53;101208.47;;;26.24;42.65
24558;BME280;12726;49.148;8.582;2023-10-08T13:13:44;101204.69;;;26.20;43.15
24558;BME280;12726;49.148;8.582;2023-10-08T13:16:33;101199.91;;;26.06;42.54
24558;BME280;12726;49.148;8.582;2023-10-08T13:19:21;101201.38;;;26.18;42.76
24558;BME280;12726;49.148;8.582;2023-10-08T13:22:07;101205.06;;;26.13;42.34
24558;BME280;12726;49.148;8.582;2023-10-08T13:24:53;101200.81;;;26.21;42.42
24558;BME280;12726;49.148;8.582;2023-10-08T13:27:39;101201.78;;;26.30;41.24
24558;BME280;12726;49.148;8.582;2023-10-08T13:30:24;101194.75;;;26.19;41.95
24558;BME280;12726;49.148;8.582;2023-10-08T13:33:13;101192.28;;;26.17;42.49
24558;BME280;12726;49.148;8.582;2023-10-08T13:35:59;101185.88;;;26.03;41.60
24558;BME280;12726;49.148;8.582;2023-10-08T13:38:46;101190.53;;;25.84;43.24
24558;BME280;12726;49.148;8.582;2023-10-08T13:41:31;101195.16;;;25.88;42.50
24558;BME280;12726;49.148;8.582;2023-10-08T13:44:19;101181.34;;;25.69;42.90
24558;BME280;12726;49.148;8.582;2023-10-08T13:47:15;101185.41;;;25.48;43.79
24558;BME280;12726;49.148;8.582;2023-10-08T13:50:03;101180.66;;;25.54;43.77
24558;BME280;12726;49.148;8.582;2023-10-08T13:52:54;101175.91;;;25.64;42.86
24558;BME280;12726;49.148;8.582;2023-10-08T13:55:39;101178.44;;;25.56;44.90
24558;BME280;12726;49.148;8.582;2023-10-08T13:58:28;101172.00;;;25.65;43.96
24558;BME280;12726;49.148;8.582;2023-10-08T14:01:15;101162.19;;;25.54;44.10
24558;BME280;12726;49.148;8.582;2023-10-08T14:04:04;101168.41;;;25.41;44.72
24558;BME280;12726;49.148;8.582;2023-10-08T14:06:51;101161.66;;;25.28;45.33
24558;BME280;12726;49.148;8.582;2023-10-08T14:09:38;101159.94;;;25.32;44.10
24558;BME280;12726;49.148;8.582;2023-10-08T14:12:26;101153.13;;;25.25;44.63
24558;BME280;12726;49.148;8.582;2023-10-08T14:15:11;101150.81;;;25.08;45.47
24558;BME280;12726;49.148;8.582;2023-10-08T14:17:59;101148.53;;;25.15;44.62
24558;BME280;12726;49.148;8.582;2023-10-08T14:20:48;101145.47;;;25.22;45.28
24558;BME280;12726;49.148;8.582;2023-10-08T14:23:39;101155.66;;;25.45;43.89
24558;BME280;12726;49.148;8.582;2023-10-08T14:26:24;101151.41;;;25.34;44.49
24558;BME280;12726;49.148;8.582;2023-10-08T14:29:18;101143.03;;;25.15;45.54
24558;BME280;12726;49.148;8.582;2023-10-08T14:32:04;101146.97;;;25.09;44.85
24558;BME280;12726;49.148;8.582;2023-10-08T14:34:52;101140.22;;;24.96;45.92
24558;BME280;12726;49.148;8.582;2023-10-08T14:37:55;101132.81;;;24.92;45.07
24558;BME280;12726;49.148;8.582;2023-10-08T14:41:00;101126.97;;;24.99;44.99
24558;BME280;12726;49.148;8.582;2023-10-08T14:44:03;101126.56;;;25.10;44.08
24558;BME280;12726;49.148;8.582;2023-10-08T14:46:48;101128.16;;;25.16;44.72
24558;BME280;12726;49.148;8.582;2023-10-08T14:49:34;101131.78;;;25.12;44.16
24558;BME280;12726;49.148;8.582;2023-10-08T14:52:19;101118.06;;;25.07;45.12